Time;durP1;ratioP1;P1;durP2;ratioP2;P2;SDS_P1;SDS_P2;PMS_P1;PMS_P2;Temp;Humidity;BMP_temperature;BMP_pressure;BME280_temperature;BME280_humidity;BME280_pressure;Samples;Min_cycle;Max_cycle;Signal;HPM_P1;HPM_P2
2022/04/11 00:02:04;;;;;;;8.40;6.27;;;;;;;0.19;100.00;96736.84;5032020;28;104131;-65
2022/04/11 00:04:31;;;;;;;7.43;6.10;;;;;;;0.29;100.00;96734.75;5028767;28;105380;-65
2022/04/11 00:06:58;;;;;;;6.83;6.20;;;;;;;0.39;100.00;96734.53;5028341;28;104419;-65
2022/04/11 00:09:25;;;;;;;7.67;6.53;;;;;;;0.29;100.00;96736.56;5028967;28;101930;-65
2022/04/11 00:11:52;;;;;;;7.33;6.53;;;;;;;0.20;100.00;96732.41;5029021;28;103537;-65
2022/04/11 00:14:26;;;;;;;7.00;6.30;;;;;;;0.27;100.00;96733.31;5028499;28;104037;-65
2022/04/11 00:16:53;;;;;;;9.03;6.80;;;;;;;0.26;100.00;96736.91;5028639;28;102187;-65
2022/04/11 00:19:21;;;;;;;7.20;6.47;;;;;;;0.17;100.00;96730.16;5062811;27;105351;-65
2022/04/11 00:21:48;;;;;;;7.57;6.67;;;;;;;0.17;100.00;96727.56;5027987;28;106043;-65
2022/04/11 00:24:15;;;;;;;6.67;6.07;;;;;;;0.10;100.00;96724.00;5032362;28;101919;-65
2022/04/11 00:26:42;;;;;;;7.43;6.57;;;;;;;0.02;100.00;96719.66;5029073;28;102592;-65
2022/04/11 00:29:09;;;;;;;6.83;5.93;;;;;;;0.05;100.00;96711.47;5028695;28;101993;-65
2022/04/11 00:31:38;;;;;;;6.27;5.67;;;;;;;0.09;100.00;96719.75;5028823;28;105566;-65
2022/04/11 00:34:06;;;;;;;6.73;6.13;;;;;;;-0.16;100.00;96718.38;5028056;28;105330;-65
2022/04/11 00:36:34;;;;;;;7.47;6.27;;;;;;;-0.19;100.00;96718.72;5029845;28;102066;-65
2022/04/11 00:39:00;;;;;;;7.13;6.00;;;;;;;-0.10;100.00;96715.84;5028663;28;105159;-65
2022/04/11 00:41:27;;;;;;;7.53;6.73;;;;;;;-0.05;100.00;96715.34;5027975;28;105501;-65
2022/04/11 00:43:54;;;;;;;7.20;6.50;;;;;;;-0.03;100.00;96721.19;5028569;28;101845;-65
2022/04/11 00:46:21;;;;;;;7.50;6.77;;;;;;;-0.01;100.00;96717.41;5031090;28;105537;-65
2022/04/11 00:48:50;;;;;;;8.53;6.60;;;;;;;0.05;100.00;96726.31;5028433;28;102578;-65
2022/04/11 00:51:21;;;;;;;8.37;7.40;;;;;;;0.18;100.00;96710.88;5028535;28;104915;-65
2022/04/11 00:53:49;;;;;;;7.60;6.80;;;;;;;0.18;100.00;96723.94;5027732;28;105887;-65
2022/04/11 00:56:18;;;;;;;8.37;7.40;;;;;;;0.22;100.00;96712.94;5027797;28;101925;-65
2022/04/11 00:58:45;;;;;;;7.20;6.60;;;;;;;0.19;100.00;96720.31;5028236;28;105079;-65
2022/04/11 01:01:15;;;;;;;7.30;6.60;;;;;;;0.13;100.00;96714.00;5028912;28;103120;-65
2022/04/11 01:03:42;;;;;;;8.83;6.87;;;;;;;0.12;100.00;96719.41;5028263;28;102220;-65
2022/04/11 01:06:10;;;;;;;6.27;5.50;;;;;;;0.07;100.00;96714.72;5028202;28;105199;-65
2022/04/11 01:08:38;;;;;;;6.87;6.17;;;;;;;0.01;100.00;96718.03;5031033;28;105349;-65
2022/04/11 01:11:07;;;;;;;6.10;5.53;;;;;;;-0.11;100.00;96723.84;5028200;28;105375;-65
2022/04/11 01:13:34;;;;;;;7.40;6.27;;;;;;;-0.30;100.00;96721.75;5027540;28;105899;-65
2022/04/11 01:16:03;;;;;;;6.87;6.23;;;;;;;-0.22;100.00;96726.88;5027918;28;101874;-65
2022/04/11 01:18:33;;;;;;;6.87;6.17;;;;;;;-0.13;100.00;96720.63;5028312;28;104863;-65
2022/04/11 01:21:00;;;;;;;6.80;6.20;;;;;;;-0.28;100.00;96723.19;5027342;28;105530;-65
2022/04/11 01:23:29;;;;;;;7.43;6.73;;;;;;;-0.19;100.00;96729.16;5062100;27;101936;-65
2022/04/11 01:25:56;;;;;;;7.00;6.00;;;;;;;-0.20;100.00;96732.75;5028051;28;105139;-65
2022/04/11 01:28:24;;;;;;;7.70;7.00;;;;;;;-0.20;100.00;96730.16;5030662;28;105415;-65
2022/04/11 01:30:52;;;;;;;7.77;6.97;;;;;;;-0.27;100.00;96734.47;5027976;28;105717;-65
2022/04/11 01:33:25;;;;;;;8.90;6.73;;;;;;;-0.23;100.00;96730.50;5029286;27;105034;-65
2022/04/11 01:35:52;;;;;;;8.90;6.43;;;;;;;-0.13;100.00;96720.63;5031239;28;101913;-65
2022/04/11 01:38:19;;;;;;;7.13;6.43;;;;;;;-0.03;100.00;96721.19;5031387;28;105021;-65
2022/04/11 01:40:53;;;;;;;7.23;6.53;;;;;;;-0.13;100.00;96721.44;5030708;28;105733;-65
2022/04/11 01:43:21;;;;;;;6.90;6.20;;;;;;;-0.15;100.00;96722.59;5031360;28;102559;-65
2022/04/11 01:45:49;;;;;;;7.20;6.50;;;;;;;-0.38;100.00;96727.03;5031048;28;105448;-65
2022/04/11 01:48:18;;;;;;;7.77;6.60;;;;;;;-0.54;100.00;96723.72;5030507;28;105264;-65
2022/04/11 01:50:46;;;;;;;6.27;5.73;;;;;;;-0.57;100.00;96721.44;5034675;28;102522;-65
2022/04/11 01:53:14;;;;;;;9.27;6.73;;;;;;;-0.57;100.00;96717.03;5030742;28;105229;-65
2022/04/11 01:55:43;;;;;;;6.80;6.10;;;;;;;-0.62;100.00;96716.75;5030399;28;101926;-65
2022/04/11 01:58:13;;;;;;;7.70;6.83;;;;;;;-0.68;100.00;96720.03;5030663;28;105454;-65
2022/04/11 02:00:41;;;;;;;7.17;6.30;;;;;;;-0.71;100.00;96720.38;5030462;28;105053;-65
2022/04/11 02:03:10;;;;;;;8.63;6.50;;;;;;;-0.54;100.00;96714.09;5030949;28;101881;-65
2022/04/11 02:05:37;;;;;;;7.93;7.10;;;;;;;-0.52;100.00;96719.94;5030878;28;105505;-65
2022/04/11 02:08:07;;;;;;;7.50;6.70;;;;;;;-0.53;100.00;96720.94;5030044;28;105399;-65
2022/04/11 02:10:35;;;;;;;8.07;6.50;;;;;;;-0.60;100.00;96721.78;5030914;28;101879;-65
2022/04/11 02:13:02;;;;;;;7.10;6.40;;;;;;;-0.57;100.00;96721.44;5033673;28;105184;-65
2022/04/11 02:15:31;;;;;;;9.00;6.83;;;;;;;-0.48;100.00;96720.41;5031012;28;101922;-65
2022/04/11 02:17:58;;;;;;;7.10;6.07;;;;;;;-0.69;100.00;96715.81;5030613;28;106058;-65
2022/04/11 02:20:26;;;;;;;6.73;6.03;;;;;;;-0.65;100.00;96721.50;5030065;28;105767;-65
2022/04/11 02:22:55;;;;;;;6.97;5.90;;;;;;;-0.71;100.00;96711.75;5030561;28;101767;-65
2022/04/11 02:25:24;;;;;;;5.73;5.13;;;;;;;-0.80;100.00;96715.38;5030760;28;105180;-65
2022/04/11 02:27:54;;;;;;;7.17;6.23;;;;;;;-0.86;100.00;96710.84;5029588;28;105798;-65
2022/04/11 02:30:22;;;;;;;7.07;5.90;;;;;;;-0.75;100.00;96713.06;5030586;28;102060;-65
2022/04/11 02:32:52;;;;;;;6.37;5.77;;;;;;;-0.63;100.00;96702.06;5030667;28;105335;-65
2022/04/11 02:35:19;;;;;;;7.00;6.00;;;;;;;-0.79;100.00;96696.94;5033137;28;105031;-65
2022/04/11 02:37:47;;;;;;;6.43;5.70;;;;;;;-0.74;100.00;96692.03;5030513;28;104818;-65
2022/04/11 02:40:16;;;;;;;6.07;5.53;;;;;;;-0.65;100.00;96698.00;5029768;28;105129;-65
2022/04/11 02:43:03;;;;;;;6.97;6.10;;;;;;;-0.84;100.00;96688.81;5030265;28;102802;-65
2022/04/11 02:45:32;;;;;;;6.57;5.97;;;;;;;-0.87;100.00;96689.19;5030439;28;104962;-65
2022/04/11 02:48:01;;;;;;;6.87;6.00;;;;;;;-0.83;100.00;96685.22;5029355;28;105475;-65
2022/04/11 02:50:32;;;;;;;6.60;5.70;;;;;;;-0.85;100.00;96684.59;5030141;28;101868;-65
2022/04/11 02:53:08;;;;;;;6.43;5.80;;;;;;;-0.97;100.00;96675.53;5030257;28;105264;-65
2022/04/11 02:55:35;;;;;;;6.30;5.70;;;;;;;-0.93;100.00;96678.59;5029305;28;103829;-65
2022/04/11 02:58:03;;;;;;;8.60;6.50;;;;;;;-0.91;100.00;96676.63;5033474;28;101927;-65
2022/04/11 03:00:30;;;;;;;7.80;6.70;;;;;;;-0.96;100.00;96677.16;5029029;28;105398;-65
2022/04/11 03:02:59;;;;;;;8.10;6.47;;;;;;;-1.00;100.00;96668.03;5030207;28;102111;-65
2022/04/11 03:05:34;;;;;;;7.87;6.70;;;;;;;-0.94;100.00;96666.53;5030140;28;104980;-65
2022/04/11 03:08:02;;;;;;;6.93;6.23;;;;;;;-0.99;100.00;96669.66;5029426;28;103694;-65
2022/04/11 03:10:29;;;;;;;8.67;6.63;;;;;;;-0.97;100.00;96666.88;5030004;28;101916;-65
2022/04/11 03:13:02;;;;;;;7.37;5.73;;;;;;;-0.98;100.00;96670.47;5029854;28;104285;-65
2022/04/11 03:15:32;;;;;;;7.80;6.20;;;;;;;-1.03;100.00;96663.16;5029265;28;105013;-65
2022/04/11 03:18:00;;;;;;;8.83;6.10;;;;;;;-0.91;100.00;96661.78;5029865;28;102208;-65
2022/04/11 03:20:27;;;;;;;6.87;6.23;;;;;;;-0.98;100.00;96658.25;5032677;28;104852;-65
2022/04/11 03:22:57;;;;;;;6.73;6.03;;;;;;;-1.06;100.00;96655.69;5029575;28;101934;-65
2022/04/11 03:25:25;;;;;;;6.90;6.20;;;;;;;-1.01;100.00;96655.97;5029572;28;103426;-65
2022/04/11 03:27:52;;;;;;;7.03;6.27;;;;;;;-0.98;100.00;96655.66;5028927;28;105019;-65
2022/04/11 03:30:21;;;;;;;7.23;6.53;;;;;;;-1.00;100.00;96651.56;5029672;28;101867;-65
2022/04/11 03:32:49;;;;;;;7.30;6.50;;;;;;;-0.99;100.00;96655.81;5030969;27;102876;-65
2022/04/11 03:35:18;;;;;;;7.97;6.90;;;;;;;-0.88;100.00;96650.19;5028820;28;105673;-65
2022/04/11 03:37:46;;;;;;;8.13;6.77;;;;;;;-0.85;100.00;96650.66;5029679;28;101935;-65
2022/04/11 03:40:21;;;;;;;8.00;6.53;;;;;;;-0.83;100.00;96647.88;5032330;28;104540;-65
2022/04/11 03:42:48;;;;;;;8.10;7.30;;;;;;;-0.86;100.00;96646.41;5029281;28;101867;-65
2022/04/11 03:45:15;;;;;;;8.87;7.30;;;;;;;-0.85;100.00;96653.25;5029527;28;104838;-65
2022/04/11 03:47:45;;;;;;;8.40;6.93;;;;;;;-0.87;100.00;96650.03;5028740;28;105432;-65
2022/04/11 03:50:15;;;;;;;7.67;6.87;;;;;;;-0.83;100.00;96650.50;5029148;28;101990;-65
2022/04/11 03:52:43;;;;;;;8.80;7.13;;;;;;;-0.74;100.00;96654.66;5029255;28;104993;-65
2022/04/11 03:55:11;;;;;;;9.10;7.20;;;;;;;-0.69;100.00;96650.53;5027459;27;105183;-65
2022/04/11 03:57:44;;;;;;;7.43;6.73;;;;;;;-0.67;100.00;96651.16;5029203;28;102028;-65
2022/04/11 04:00:12;;;;;;;8.07;6.50;;;;;;;-0.65;100.00;96645.78;5029087;28;104774;-65
2022/04/11 04:03:05;;;;;;;7.77;6.97;;;;;;;-0.60;100.00;96641.63;5032036;28;105022;-65
2022/04/11 04:05:34;;;;;;;7.97;6.50;;;;;;;-0.63;100.00;96643.78;5029225;28;105260;-65
2022/04/11 04:08:01;;;;;;;7.67;6.23;;;;;;;-0.66;100.00;96639.72;5028293;28;105499;-65
2022/04/11 04:10:28;;;;;;;7.27;6.43;;;;;;;-0.73;100.00;96643.25;5029043;28;101980;-65
2022/04/11 04:12:59;;;;;;;7.40;6.70;;;;;;;-0.64;100.00;96639.56;5029008;28;105040;-65
2022/04/11 04:15:27;;;;;;;8.20;7.27;;;;;;;-0.60;100.00;96640.84;5028465;28;105089;-65
2022/04/11 04:17:56;;;;;;;7.80;7.00;;;;;;;-0.72;100.00;96637.81;5062717;27;101813;-65
2022/04/11 04:20:26;;;;;;;7.50;6.80;;;;;;;-0.74;100.00;96639.81;5028846;28;104666;-65
2022/04/11 04:22:53;;;;;;;8.50;7.60;;;;;;;-0.73;100.00;96628.38;5028113;28;104193;-65
2022/04/11 04:25:21;;;;;;;10.10;9.03;;;;;;;-0.65;100.00;96633.53;5032439;28;101827;-65
2022/04/11 04:27:48;;;;;;;9.60;8.60;;;;;;;-0.72;100.00;96622.16;5027980;28;105323;-65
2022/04/11 04:30:19;;;;;;;8.87;7.93;;;;;;;-0.69;100.00;96628.81;5028199;28;101923;-65
2022/04/11 04:32:48;;;;;;;9.30;8.30;;;;;;;-0.60;100.00;96633.00;5028897;28;105322;-65
2022/04/11 04:35:16;;;;;;;7.93;7.10;;;;;;;-0.54;100.00;96635.75;5028031;28;105428;-65
2022/04/11 04:37:46;;;;;;;8.03;6.97;;;;;;;-0.63;100.00;96634.16;5028351;28;102154;-65
2022/04/11 04:40:13;;;;;;;7.77;6.97;;;;;;;-0.62;100.00;96630.56;5028675;28;104773;-65
2022/04/11 04:42:44;;;;;;;7.60;6.80;;;;;;;-0.55;100.00;96628.88;5027917;28;105003;-65
2022/04/11 04:45:14;;;;;;;9.87;6.90;;;;;;;-0.45;100.00;96616.38;5028477;28;102857;-65
2022/04/11 04:48:05;;;;;;;8.97;7.63;;;;;;;-0.47;100.00;96620.97;5031395;28;105053;-65
2022/04/11 04:50:35;;;;;;;11.00;9.53;;;;;;;-0.65;100.00;96617.88;5028548;28;102248;-65
2022/04/11 04:53:04;;;;;;;9.30;7.93;;;;;;;-0.55;100.00;96620.25;5028353;28;105389;-65
2022/04/11 04:55:31;;;;;;;11.53;8.20;;;;;;;-0.46;100.00;96617.38;5027357;28;104711;-65
2022/04/11 04:57:58;;;;;;;9.13;8.20;;;;;;;-0.26;100.00;96605.44;5028155;28;101890;-65
2022/04/11 05:00:26;;;;;;;9.77;8.33;;;;;;;-0.19;100.00;96606.34;5028224;28;104823;-65
2022/04/11 05:02:52;;;;;;;9.90;8.97;;;;;;;-0.08;100.00;96608.50;5027540;28;105465;-65
2022/04/11 05:05:25;;;;;;;11.63;9.00;;;;;;;0.06;100.00;96610.34;5027966;28;101861;-65
2022/04/11 05:07:55;;;;;;;10.87;9.33;;;;;;;0.10;100.00;96612.41;5029698;27;104757;-65
2022/04/11 05:10:27;;;;;;;11.90;10.40;;;;;;;0.08;100.00;96608.34;5034760;28;105454;-65
2022/04/11 05:12:54;;;;;;;11.37;9.80;;;;;;;0.20;100.00;96612.13;5030650;28;105564;-65
2022/04/11 05:15:23;;;;;;;13.83;10.20;;;;;;;0.43;100.00;96608.41;5031129;28;105664;-65
2022/04/11 05:17:55;;;;;;;13.83;11.13;;;;;;;0.71;100.00;96608.56;5030488;28;101977;-65
2022/04/11 05:20:26;;;;;;;12.80;11.33;;;;;;;0.43;100.00;96610.19;5030782;28;104872;-65
2022/04/11 05:22:53;;;;;;;13.23;11.37;;;;;;;0.44;100.00;96609.22;5030243;28;105916;-65
2022/04/11 05:25:23;;;;;;;14.43;11.50;;;;;;;0.60;100.00;96603.81;5030431;28;102071;-65
2022/04/11 05:27:52;;;;;;;15.23;10.93;;;;;;;0.55;100.00;96600.91;5030284;28;104836;-65
2022/04/11 05:30:19;;;;;;;12.80;11.03;;;;;;;0.55;100.00;96606.94;5030036;28;105152;-65
2022/04/11 05:32:46;;;;;;;14.07;11.83;;;;;;;0.65;100.00;96596.19;5034250;28;101837;-65
2022/04/11 05:35:13;;;;;;;15.63;11.87;;;;;;;0.87;100.00;96595.22;5029942;28;104979;-65
2022/04/11 05:37:43;;;;;;;14.67;12.60;;;;;;;1.08;100.00;96597.84;5030193;28;101957;-65
2022/04/11 05:40:12;;;;;;;17.47;12.33;;;;;;;1.00;100.00;96595.38;5030314;28;105163;-65
2022/04/11 05:42:40;;;;;;;15.63;12.67;;;;;;;1.15;100.00;96601.38;5029720;28;105352;-65
2022/04/11 05:45:09;;;;;;;13.47;11.80;;;;;;;1.30;100.00;96594.25;5030456;28;101972;-65
2022/04/11 05:47:38;;;;;;;15.90;13.13;;;;;;;1.39;100.00;96598.38;5030283;28;104121;-65
2022/04/11 05:50:07;;;;;;;16.10;12.57;;;;;;;1.38;100.00;96596.75;5029529;28;105731;-65
2022/04/11 05:52:35;;;;;;;15.10;13.37;;;;;;;1.51;100.00;96594.22;5033645;28;102029;-65
2022/04/11 05:55:04;;;;;;;13.43;12.07;;;;;;;1.53;100.00;96598.28;5029334;28;105503;-65
2022/04/11 05:57:31;;;;;;;14.70;13.10;;;;;;;1.53;100.00;96594.88;5029915;28;101844;-65
2022/04/11 05:59:58;;;;;;;16.40;14.70;;;;;;;1.67;100.00;96593.94;5030117;28;105091;-65
2022/04/11 06:02:25;;;;;;;16.10;14.40;;;;;;;1.90;100.00;96582.22;5029431;28;104437;-65
2022/04/11 06:04:52;;;;;;;13.80;12.40;;;;;;;1.98;100.00;96589.94;5029918;28;101915;-65
2022/04/11 06:07:20;;;;;;;12.87;11.57;;;;;;;1.87;100.00;96584.44;5029931;28;105233;-65
2022/04/11 06:09:49;;;;;;;12.53;11.13;;;;;;;1.81;100.00;96585.19;5029358;28;105168;-65
2022/04/11 06:12:20;;;;;;;12.40;11.10;;;;;;;1.66;100.00;96584.47;5029589;28;101887;-65
2022/04/11 06:14:50;;;;;;;12.83;11.63;;;;;;;1.72;100.00;96587.16;5032851;28;104917;-64
2022/04/11 06:17:17;;;;;;;12.57;10.60;;;;;;;1.72;100.00;96578.47;5029839;28;101885;-65
2022/04/11 06:19:45;;;;;;;10.97;9.83;;;;;;;1.65;100.00;96570.53;5029133;27;104775;-64
2022/04/11 06:22:12;;;;;;;11.27;9.80;;;;;;;1.83;100.00;96572.69;5063884;27;104930;-64
2022/04/11 06:24:39;;;;;;;12.77;10.80;;;;;;;1.79;100.00;96574.06;5064934;27;101892;-65
2022/04/11 06:27:07;;;;;;;10.40;9.03;;;;;;;1.92;100.00;96576.81;5029362;28;105526;-65
2022/04/11 06:29:36;;;;;;;9.80;8.80;;;;;;;1.99;100.00;96578.47;5029926;28;105821;-64
2022/04/11 06:32:05;;;;;;;10.87;8.50;;;;;;;2.29;100.00;96584.28;5030426;28;102104;-64
2022/04/11 06:34:37;;;;;;;8.60;7.70;;;;;;;2.33;100.00;96586.31;5030630;28;104933;-64
2022/04/11 06:37:05;;;;;;;7.90;7.20;;;;;;;2.48;100.00;96584.38;5033247;28;105029;-64
2022/04/11 06:39:32;;;;;;;9.50;7.63;;;;;;;2.53;100.00;96581.16;5030358;28;105182;-65
2022/04/11 06:42:01;;;;;;;7.67;6.97;;;;;;;2.62;100.00;96574.75;5029914;28;105480;-65
2022/04/11 06:44:30;;;;;;;7.27;6.30;;;;;;;2.64;100.00;96575.34;5028902;28;102094;-65
2022/04/11 06:47:13;;;;;;;7.27;6.57;;;;;;;2.63;100.00;96566.66;5030052;28;105352;-65
2022/04/11 06:49:41;;;;;;;7.80;7.00;;;;;;;2.78;100.00;96572.56;5029736;28;105176;-65
2022/04/11 06:52:08;;;;;;;8.60;7.60;;;;;;;2.90;100.00;96578.84;5030343;28;101906;-65
2022/04/11 06:54:35;;;;;;;8.43;7.63;;;;;;;3.02;100.00;96576.47;5029727;28;105265;-65
2022/04/11 06:57:03;;;;;;;8.67;7.73;;;;;;;2.98;100.00;96576.06;5029310;28;105102;-65
2022/04/11 06:59:30;;;;;;;8.03;7.20;;;;;;;3.23;100.00;96576.31;5033724;28;102002;-62
2022/04/11 07:01:57;;;;;;;8.50;7.70;;;;;;;3.27;100.00;96574.91;5029217;28;105723;-62
2022/04/11 07:04:28;;;;;;;6.97;6.27;;;;;;;3.32;100.00;96580.34;5030082;28;102928;-62
2022/04/11 07:06:55;;;;;;;7.67;6.47;;;;;;;3.30;100.00;96570.06;5029959;28;104785;-62
2022/04/11 07:09:21;;;;;;;7.20;6.50;;;;;;;3.55;100.00;96567.63;5029286;28;105271;-62
2022/04/11 07:11:48;;;;;;;6.80;6.10;;;;;;;3.48;100.00;96577.31;5029869;28;101918;-62
2022/04/11 07:14:16;;;;;;;7.40;6.27;;;;;;;3.73;100.00;96570.47;5029947;28;105113;-62
2022/04/11 07:16:43;;;;;;;7.47;6.77;;;;;;;3.90;100.00;96571.66;5029130;28;105175;-62
2022/04/11 07:19:10;;;;;;;9.30;6.63;;;;;;;3.76;100.00;96575.31;5029738;28;101955;-62
2022/04/11 07:21:38;;;;;;;7.03;6.40;;;;;;;3.74;100.00;96572.06;5032487;28;104764;-62
2022/04/11 07:24:05;;;;;;;7.03;5.73;;;;;;;3.97;100.00;96573.25;5029730;28;102277;-63
2022/04/11 07:26:32;;;;;;;8.43;6.20;;;;;;;4.27;100.00;96568.34;5029601;28;103734;-63
2022/04/11 07:29:00;;;;;;;7.37;5.97;;;;;;;4.29;100.00;96571.56;5029150;28;104013;-63
2022/04/11 07:31:29;;;;;;;6.93;5.73;;;;;;;4.12;100.00;96573.84;5028320;27;101869;-63
2022/04/11 07:33:56;;;;;;;6.60;5.60;;;;;;;4.41;100.00;96569.91;5029529;28;104098;-63
2022/04/11 07:36:25;;;;;;;6.67;5.90;;;;;;;4.63;100.00;96563.38;5028989;28;103903;-63
2022/04/11 07:38:55;;;;;;;7.60;6.50;;;;;;;4.73;100.00;96563.72;5029534;28;101990;-63
2022/04/11 07:41:22;;;;;;;6.10;5.50;;;;;;;4.85;100.00;96564.69;5030835;28;103867;-62
2022/04/11 07:43:51;;;;;;;6.13;5.30;;;;;;;5.11;100.00;96561.88;5032145;27;102208;-63
2022/04/11 07:46:18;;;;;;;7.17;5.03;;;;;;;5.51;100.00;96560.63;5029489;28;103588;-64
2022/04/11 07:48:47;;;;;;;6.17;5.27;;;;;;;5.83;100.00;96562.22;5028797;28;104993;-62
2022/04/11 07:51:15;;;;;;;7.37;4.87;;;;;;;6.16;100.00;96555.59;5062856;27;101911;-62
2022/04/11 07:53:42;;;;;;;6.47;4.57;;;;;;;6.24;100.00;96555.31;5029462;28;105053;-62
2022/04/11 07:56:10;;;;;;;5.30;4.40;;;;;;;6.52;100.00;96555.59;5028073;28;105066;-62
2022/04/11 07:58:37;;;;;;;5.20;4.70;;;;;;;6.62;100.00;96553.25;5029088;28;101880;-62
2022/04/11 08:01:04;;;;;;;6.07;4.90;;;;;;;6.72;100.00;96548.25;5029155;28;105365;-62
2022/04/11 08:03:32;;;;;;;4.40;4.00;;;;;;;5.90;100.00;96552.41;5033158;28;103084;-62
2022/04/11 08:05:59;;;;;;;5.57;4.40;;;;;;;5.77;100.00;96549.84;5029027;28;103705;-62
2022/04/11 08:08:27;;;;;;;4.20;3.80;;;;;;;6.31;100.00;96561.31;5028457;28;105459;-63
2022/04/11 08:10:56;;;;;;;4.90;4.50;;;;;;;6.68;100.00;96562.94;5029112;28;102034;-63
2022/04/11 08:13:24;;;;;;;4.50;4.10;;;;;;;6.97;100.00;96561.34;5030548;27;102243;-63
2022/04/11 08:15:51;;;;;;;4.10;3.60;;;;;;;7.37;100.00;96552.63;5029307;28;102539;-63
2022/04/11 08:18:18;;;;;;;3.47;3.00;;;;;;;7.11;100.00;96553.03;5029023;28;101926;-63
2022/04/11 08:20:45;;;;;;;3.20;2.90;;;;;;;7.35;100.00;96562.66;5028828;28;105495;-63
2022/04/11 08:23:12;;;;;;;4.83;3.50;;;;;;;7.27;100.00;96554.22;5028069;28;105574;-63
2022/04/11 08:25:39;;;;;;;4.57;3.67;;;;;;;7.09;100.00;96560.38;5032304;28;102189;-63
2022/04/11 08:28:07;;;;;;;3.97;2.90;;;;;;;7.36;100.00;96555.53;5027951;28;105710;-63
2022/04/11 08:30:38;;;;;;;4.93;3.00;;;;;;;7.06;100.00;96550.25;5028577;28;101836;-63
2022/04/11 08:33:05;;;;;;;3.87;3.47;;;;;;;7.40;100.00;96551.38;5028910;28;105214;-63
2022/04/11 08:35:33;;;;;;;3.40;3.10;;;;;;;7.62;100.00;96547.16;5029058;28;103188;-63
2022/04/11 08:38:00;;;;;;;3.60;3.30;;;;;;;7.63;100.00;96549.59;5028560;28;101879;-63
2022/04/11 08:40:28;;;;;;;3.77;2.83;;;;;;;7.64;100.00;96545.91;5028527;28;105144;-63
2022/04/11 08:42:55;;;;;;;3.67;3.37;;;;;;;7.84;100.00;96548.22;5027750;27;103868;-63
2022/04/11 08:45:24;;;;;;;3.93;3.63;;;;;;;8.39;100.00;96549.53;5028436;28;101847;-63
2022/04/11 08:47:55;;;;;;;3.10;2.90;;;;;;;8.79;100.00;96542.41;5031278;28;104050;-64
2022/04/11 08:50:22;;;;;;;4.20;2.57;;;;;;;9.03;100.00;96552.72;5030068;28;102134;-64
2022/04/11 08:52:50;;;;;;;3.80;2.57;;;;;;;9.04;100.00;96549.00;5029965;28;102475;-64
2022/04/11 08:55:18;;;;;;;2.90;2.50;;;;;;;9.24;100.00;96540.63;5026998;28;105855;-63
2022/04/11 08:57:45;;;;;;;3.27;2.53;;;;;;;8.07;100.00;96541.09;5028284;28;101841;-63
2022/04/11 09:00:15;;;;;;;3.80;2.40;;;;;;;8.77;100.00;96539.22;5028276;28;105023;-63
2022/04/11 09:02:44;;;;;;;3.13;2.80;;;;;;;8.79;100.00;96542.41;5028795;27;102700;-66
2022/04/11 09:05:21;;;;;;;3.43;2.83;;;;;;;8.99;100.00;96534.88;5028166;28;101857;-64
2022/04/11 09:07:51;;;;;;;3.53;2.37;;;;;;;8.91;100.00;96529.91;5028258;28;105594;-66
2022/04/11 09:10:20;;;;;;;2.77;2.37;;;;;;;8.91;100.00;96521.97;5030691;28;106608;-63
2022/04/11 09:12:49;;;;;;;2.37;2.27;;;;;;;8.87;100.00;96520.81;5028047;28;105144;-66
2022/04/11 09:15:17;;;;;;;2.47;2.23;;;;;;;8.75;100.00;96520.06;5027569;28;105032;-66
2022/04/11 09:17:45;;;;;;;2.90;2.00;;;;;;;9.37;100.00;96513.81;5027783;28;101908;-66
2022/04/11 09:20:16;;;;;;;2.77;2.27;;;;;;;9.74;100.00;96517.59;5027917;28;105524;-66
2022/04/11 09:22:44;;;;;;;2.77;2.10;;;;;;;10.32;100.00;96518.78;5027114;28;105422;-66
2022/04/11 09:25:13;;;;;;;2.27;2.07;;;;;;;10.68;100.00;96520.03;5028182;28;101885;-66
2022/04/11 09:27:40;;;;;;;1.70;1.60;;;;;;;11.07;100.00;96513.56;5028935;28;102394;-66
2022/04/11 09:30:22;;;;;;;1.67;1.53;;;;;;;11.36;100.00;96510.41;5025244;27;105045;-65
2022/04/11 09:32:54;;;;;;;1.83;1.40;;;;;;;11.41;90.44;96507.81;5031262;28;102077;-66
2022/04/11 09:35:24;;;;;;;1.67;1.20;;;;;;;11.43;84.54;96515.53;5027287;28;105423;-66
2022/04/11 09:38:06;;;;;;;1.47;1.30;;;;;;;11.88;84.25;96502.63;5027910;28;102143;-66
2022/04/11 09:40:37;;;;;;;1.10;1.10;;;;;;;11.89;80.61;96504.25;5027967;28;105165;-66
2022/04/11 09:43:04;;;;;;;1.17;1.17;;;;;;;12.28;80.34;96500.22;5026890;28;105363;-66
2022/04/11 09:45:31;;;;;;;1.77;1.07;;;;;;;12.38;74.25;96500.28;5027800;28;102024;-65
2022/04/11 09:48:03;;;;;;;2.57;1.13;;;;;;;12.68;65.63;96503.09;5027580;28;105289;-65
2022/04/11 09:50:33;;;;;;;1.83;1.00;;;;;;;12.77;68.74;96498.88;5028558;28;103119;-66
2022/04/11 09:53:12;;;;;;;1.60;1.37;;;;;;;12.52;73.82;96504.09;5031082;27;101778;-66
2022/04/11 09:55:40;;;;;;;1.43;1.33;;;;;;;12.90;72.96;96493.84;5029643;28;105414;-66
2022/04/11 09:58:08;;;;;;;1.50;1.40;;;;;;;13.13;69.16;96492.63;5030955;28;102053;-65
2022/04/11 10:00:36;;;;;;;1.23;1.13;;;;;;;13.30;66.91;96490.53;5032361;28;102922;-65
2022/04/11 10:03:03;;;;;;;1.00;1.00;;;;;;;12.96;65.05;96502.69;5030026;28;105254;-65
2022/04/11 10:05:34;;;;;;;1.20;1.10;;;;;;;13.49;67.47;96495.09;5031115;28;102442;-65
2022/04/11 10:08:02;;;;;;;1.40;1.30;;;;;;;13.43;59.35;96487.31;5032287;28;102380;-65
2022/04/11 10:10:29;;;;;;;1.80;1.10;;;;;;;13.19;64.41;96484.34;5031651;28;102546;-65
2022/04/11 10:12:57;;;;;;;1.10;1.00;;;;;;;13.59;65.42;96483.59;5031001;28;101830;-65
2022/04/11 10:15:25;;;;;;;0.90;0.90;;;;;;;13.73;55.94;96479.34;5034811;27;102514;-65
2022/04/11 10:17:54;;;;;;;1.63;1.20;;;;;;;13.88;59.25;96484.66;5030174;28;101904;-65
2022/04/11 10:20:29;;;;;;;1.03;1.00;;;;;;;13.95;54.95;96487.88;5030690;28;105663;-65
2022/04/11 10:23:03;;;;;;;1.17;1.10;;;;;;;13.89;61.63;96479.06;5031820;28;103252;-65
2022/04/11 10:25:33;;;;;;;1.30;1.20;;;;;;;13.89;58.58;96470.25;5030785;28;102109;-65
2022/04/11 10:28:22;;;;;;;1.13;1.10;;;;;;;13.86;66.48;96473.44;5029850;28;105567;-65
2022/04/11 10:31:05;;;;;;;1.60;1.30;;;;;;;14.08;60.44;96471.28;5051734;27;105078;-65
2022/04/11 10:33:47;;;;;;;1.20;1.10;;;;;;;14.38;60.93;96473.94;5025270;28;101843;-65
2022/04/11 10:36:30;;;;;;;2.70;1.20;;;;;;;14.19;65.91;96465.69;5027440;28;104441;-65
2022/04/11 10:39:28;;;;;;;1.90;1.40;;;;;;;13.72;65.58;96467.84;5032083;28;105056;-65
2022/04/11 10:42:14;;;;;;;1.97;1.37;;;;;;;14.13;60.01;96455.22;5028497;28;104801;-65
2022/04/11 10:44:44;;;;;;;1.53;1.43;;;;;;;14.38;61.41;96457.88;5025866;28;105201;-65
2022/04/11 10:47:35;;;;;;;1.70;1.60;;;;;;;14.36;59.59;96452.00;5028717;28;101842;-65
2022/04/11 10:50:25;;;;;;;1.30;1.20;;;;;;;14.55;57.26;96450.34;5004715;28;104536;-65
2022/04/11 10:52:55;;;;;;;1.20;1.20;;;;;;;14.76;56.49;96449.97;5027124;28;105228;-65
2022/04/11 10:55:25;;;;;;;1.40;1.30;;;;;;;14.84;58.86;96443.25;5026013;28;102054;-65
2022/04/11 10:57:55;;;;;;;1.37;1.27;;;;;;;14.79;55.02;96440.59;5028419;28;105455;-65
2022/04/11 11:00:23;;;;;;;2.30;1.30;;;;;;;14.79;57.74;96432.56;5025275;28;105024;-65
2022/04/11 11:03:05;;;;;;;1.70;1.60;;;;;;;15.16;53.72;96441.69;5033693;27;101839;-65
2022/04/11 11:05:35;;;;;;;1.50;1.40;;;;;;;15.00;51.83;96428.69;5027988;28;102603;-65
2022/04/11 11:08:27;;;;;;;1.80;1.30;;;;;;;14.41;55.14;96427.91;5027882;28;101909;-65
2022/04/11 11:10:57;;;;;;;1.40;1.30;;;;;;;15.00;59.04;96428.69;5029196;28;102615;-65
2022/04/11 11:13:26;;;;;;;1.67;1.50;;;;;;;15.25;56.59;96423.97;5025594;28;104254;-65
2022/04/11 11:15:53;;;;;;;2.00;1.20;;;;;;;15.44;53.58;96422.28;5028389;28;102391;-65
2022/04/11 11:18:21;;;;;;;2.80;1.40;;;;;;;15.49;49.90;96424.09;5028564;28;103534;-65
2022/04/11 11:20:53;;;;;;;1.77;1.23;;;;;;;15.31;50.15;96411.34;5029175;28;103126;-65
2022/04/11 11:23:30;;;;;;;1.00;1.00;;;;;;;15.49;49.41;96408.03;5029844;27;101926;-65
2022/04/11 11:26:09;;;;;;;1.20;1.20;;;;;;;15.55;52.23;96405.03;5031579;28;105213;-65
2022/04/11 11:28:37;;;;;;;3.43;1.50;;;;;;;15.88;47.52;96403.38;5029067;28;101913;-65
2022/04/11 11:31:05;;;;;;;1.47;1.17;;;;;;;15.70;51.20;96401.41;5030609;27;102369;-65